AAL303 KJFK-KCLT
Flight info
| Callsign | AAL303 |
|---|---|
| Flight time | N/A |
| Altitude | 34000 |
| Route | RBV Q430 COPES Q75 GVE AIROW CHSLY6 |
| Aircraft | A21N/M-VGDW/C |
Departure
| Time | 2026-05-08 14:51 |
|---|---|
| Airport | John F. Kennedy International Airport (KJFK) |
Arrival
| Time | N/A |
|---|---|
| Airport | Charlotte Douglas International Airport (KCLT) |
| Time | Latitude | Longitude | Altitude | Speed | Heading |
|---|---|---|---|---|---|
| 2026-05-08 14:36 | 40.64676 | -73.79321 | 21 ft | 0 kts | 338° |
| 2026-05-08 14:39 | 40.64675 | -73.79321 | 21 ft | 1 kts | 338° |
| 2026-05-08 14:40 | 40.64661 | -73.79312 | 23 ft | 3 kts | 337° |
| 2026-05-08 14:40 | 40.64642 | -73.79302 | 22 ft | 3 kts | 337° |
| 2026-05-08 14:40 | 40.64626 | -73.79293 | 23 ft | 4 kts | 329° |
| 2026-05-08 14:40 | 40.64613 | -73.79277 | 23 ft | 4 kts | 293° |
| 2026-05-08 14:41 | 40.64609 | -73.79253 | 22 ft | 3 kts | 265° |
| 2026-05-08 14:41 | 40.64610 | -73.79240 | 24 ft | 0 kts | 259° |
| 2026-05-08 14:44 | 40.64609 | -73.79250 | 23 ft | 3 kts | 259° |
| 2026-05-08 14:44 | 40.64603 | -73.79291 | 21 ft | 7 kts | 264° |
| 2026-05-08 14:44 | 40.64615 | -73.79371 | 21 ft | 11 kts | 277° |
| 2026-05-08 14:44 | 40.64607 | -73.79488 | 21 ft | 12 kts | 261° |
| 2026-05-08 14:45 | 40.64665 | -73.79585 | 21 ft | 16 kts | 326° |
| 2026-05-08 14:45 | 40.64769 | -73.79678 | 21 ft | 20 kts | 329° |
| 2026-05-08 14:45 | 40.64900 | -73.79706 | 21 ft | 19 kts | 358° |
| 2026-05-08 14:45 | 40.65034 | -73.79680 | 21 ft | 21 kts | 28° |
| 2026-05-08 14:46 | 40.65113 | -73.79523 | 21 ft | 21 kts | 61° |
| 2026-05-08 14:46 | 40.65190 | -73.79347 | 21 ft | 23 kts | 62° |
| 2026-05-08 14:46 | 40.65189 | -73.79141 | 21 ft | 24 kts | 107° |
| 2026-05-08 14:46 | 40.65143 | -73.78938 | 21 ft | 18 kts | 101° |
| 2026-05-08 14:47 | 40.65146 | -73.78766 | 21 ft | 20 kts | 62° |
| 2026-05-08 14:47 | 40.65210 | -73.78608 | 27 ft | 21 kts | 65° |
| 2026-05-08 14:47 | 40.65292 | -73.78474 | 21 ft | 18 kts | 0° |
| 2026-05-08 14:47 | 40.65357 | -73.78382 | 22 ft | 19 kts | 116° |
| 2026-05-08 14:48 | 40.65286 | -73.78225 | 22 ft | 21 kts | 121° |
| 2026-05-08 14:48 | 40.65210 | -73.78058 | 22 ft | 22 kts | 121° |
| 2026-05-08 14:48 | 40.65129 | -73.77882 | 21 ft | 22 kts | 119° |
| 2026-05-08 14:48 | 40.65049 | -73.77702 | 21 ft | 23 kts | 122° |
| 2026-05-08 14:49 | 40.64963 | -73.77512 | 22 ft | 25 kts | 121° |
| 2026-05-08 14:49 | 40.64872 | -73.77311 | 22 ft | 26 kts | 121° |
| 2026-05-08 14:49 | 40.64792 | -73.77135 | 22 ft | 17 kts | 121° |
| 2026-05-08 14:49 | 40.64728 | -73.76994 | 22 ft | 19 kts | 121° |
| 2026-05-08 14:50 | 40.64660 | -73.76845 | 25 ft | 16 kts | 120° |
| 2026-05-08 14:50 | 40.64597 | -73.76721 | 21 ft | 17 kts | 152° |
| 2026-05-08 14:50 | 40.64468 | -73.76786 | 21 ft | 38 kts | 212° |
| 2026-05-08 14:50 | 40.64043 | -73.77124 | 25 ft | 102 kts | 210° |
| 2026-05-08 14:51 | 40.63283 | -73.77716 | 29 ft | 152 kts | 212° |
| 2026-05-08 14:51 | 40.62355 | -73.78422 | 512 ft | 153 kts | 214° |
| 2026-05-08 14:51 | 40.61402 | -73.79161 | 1005 ft | 165 kts | 214° |
| 2026-05-08 14:51 | 40.60404 | -73.80025 | 1432 ft | 177 kts | 229° |
| 2026-05-08 14:52 | 40.59641 | -73.81360 | 1898 ft | 188 kts | 238° |
| 2026-05-08 14:52 | 40.57969 | -73.84341 | 2840 ft | 220 kts | 236° |
| 2026-05-08 14:52 | 40.56988 | -73.86065 | 3423 ft | 249 kts | 236° |
| 2026-05-08 14:53 | 40.55931 | -73.87920 | 4404 ft | 259 kts | 237° |
| 2026-05-08 14:53 | 40.54854 | -73.89796 | 5487 ft | 257 kts | 237° |
| 2026-05-08 14:53 | 40.53771 | -73.91674 | 6505 ft | 258 kts | 237° |
| 2026-05-08 14:53 | 40.52687 | -73.93564 | 7460 ft | 259 kts | 238° |
| 2026-05-08 14:54 | 40.51597 | -73.95463 | 8415 ft | 261 kts | 238° |
| 2026-05-08 14:54 | 40.50497 | -73.97383 | 9405 ft | 263 kts | 238° |
| 2026-05-08 14:54 | 40.49385 | -73.99321 | 10306 ft | 269 kts | 238° |
| 2026-05-08 14:54 | 40.48207 | -74.01374 | 10674 ft | 293 kts | 238° |
| 2026-05-08 14:55 | 40.46932 | -74.03600 | 10978 ft | 316 kts | 238° |
| 2026-05-08 14:55 | 40.45561 | -74.05975 | 11372 ft | 334 kts | 237° |
| 2026-05-08 14:55 | 40.44134 | -74.08434 | 12088 ft | 340 kts | 237° |
| 2026-05-08 14:55 | 40.42711 | -74.10887 | 12913 ft | 344 kts | 238° |
| 2026-05-08 14:56 | 40.41255 | -74.13398 | 13750 ft | 347 kts | 238° |
| 2026-05-08 14:56 | 40.39786 | -74.15933 | 14477 ft | 349 kts | 238° |
| 2026-05-08 14:56 | 40.38314 | -74.18475 | 15172 ft | 352 kts | 238° |
| 2026-05-08 14:56 | 40.36844 | -74.21009 | 15857 ft | 354 kts | 238° |
| 2026-05-08 14:57 | 40.35326 | -74.23619 | 16536 ft | 356 kts | 238° |
| 2026-05-08 14:57 | 40.33838 | -74.26184 | 17186 ft | 359 kts | 238° |
| 2026-05-08 14:57 | 40.32320 | -74.28801 | 17817 ft | 361 kts | 239° |
| 2026-05-08 14:57 | 40.30791 | -74.31429 | 18424 ft | 364 kts | 238° |
| 2026-05-08 14:58 | 40.29249 | -74.34075 | 18949 ft | 367 kts | 239° |
| 2026-05-08 14:58 | 40.27691 | -74.36747 | 19465 ft | 370 kts | 239° |
| 2026-05-08 14:58 | 40.26114 | -74.39446 | 19970 ft | 373 kts | 239° |
| 2026-05-08 14:58 | 40.24533 | -74.42151 | 20482 ft | 376 kts | 239° |
| 2026-05-08 14:59 | 40.22958 | -74.44852 | 20990 ft | 378 kts | 239° |
| 2026-05-08 14:59 | 40.20376 | -74.50774 | 22018 ft | 372 kts | 256° |
| 2026-05-08 14:59 | 40.19825 | -74.54065 | 22547 ft | 369 kts | 266° |
| 2026-05-08 15:00 | 40.19562 | -74.57416 | 23080 ft | 371 kts | 268° |
| 2026-05-08 15:00 | 40.19319 | -74.60793 | 23617 ft | 374 kts | 268° |
| 2026-05-08 15:00 | 40.19065 | -74.64203 | 24068 ft | 376 kts | 267° |
| 2026-05-08 15:00 | 40.18809 | -74.67568 | 24561 ft | 377 kts | 267° |
| 2026-05-08 15:01 | 40.18546 | -74.70985 | 25073 ft | 378 kts | 267° |
| 2026-05-08 15:01 | 40.18277 | -74.74410 | 25572 ft | 379 kts | 267° |
| 2026-05-08 15:01 | 40.18005 | -74.77835 | 26069 ft | 380 kts | 267° |
| 2026-05-08 15:01 | 40.17732 | -74.81282 | 26533 ft | 381 kts | 267° |
| 2026-05-08 15:02 | 40.17452 | -74.84742 | 26984 ft | 382 kts | 266° |
| 2026-05-08 15:02 | 40.17173 | -74.88203 | 27417 ft | 383 kts | 266° |
| 2026-05-08 15:02 | 40.16897 | -74.91619 | 27921 ft | 382 kts | 266° |
| 2026-05-08 15:02 | 40.16611 | -74.95073 | 28496 ft | 379 kts | 266° |
| 2026-05-08 15:03 | 40.16333 | -74.98498 | 29073 ft | 377 kts | 267° |
| 2026-05-08 15:03 | 40.16054 | -75.01893 | 29639 ft | 374 kts | 266° |
| 2026-05-08 15:03 | 40.15776 | -75.05275 | 30168 ft | 372 kts | 267° |
| 2026-05-08 15:03 | 40.15503 | -75.08623 | 30612 ft | 370 kts | 266° |
| 2026-05-08 15:04 | 40.15228 | -75.11938 | 31005 ft | 370 kts | 266° |
| 2026-05-08 15:04 | 40.14967 | -75.15098 | 31382 ft | 369 kts | 266° |
| 2026-05-08 15:04 | 40.14689 | -75.18437 | 31760 ft | 369 kts | 266° |
| 2026-05-08 15:04 | 40.14409 | -75.21774 | 32131 ft | 368 kts | 266° |
| 2026-05-08 15:05 | 40.14129 | -75.25104 | 32503 ft | 368 kts | 266° |
| 2026-05-08 15:05 | 40.13850 | -75.28391 | 32852 ft | 368 kts | 266° |
| 2026-05-08 15:05 | 40.13556 | -75.31705 | 33196 ft | 368 kts | 264° |
| 2026-05-08 15:05 | 40.13004 | -75.34985 | 33525 ft | 371 kts | 257° |
| 2026-05-08 15:06 | 40.12048 | -75.38095 | 33838 ft | 376 kts | 249° |
| 2026-05-08 15:06 | 40.10643 | -75.41026 | 34039 ft | 385 kts | 240° |
| 2026-05-08 15:06 | 40.06973 | -75.46244 | 34053 ft | 391 kts | 234° |
| 2026-05-08 15:07 | 40.03238 | -75.51332 | 34040 ft | 390 kts | 234° |
| 2026-05-08 15:07 | 39.99508 | -75.56475 | 34036 ft | 390 kts | 235° |
| 2026-05-08 15:08 | 39.96384 | -75.60782 | 34031 ft | 390 kts | 234° |
| 2026-05-08 15:08 | 39.92055 | -75.66759 | 34027 ft | 388 kts | 236° |
| 2026-05-08 15:09 | 39.88646 | -75.72113 | 34021 ft | 385 kts | 239° |
| 2026-05-08 15:09 | 39.85270 | -75.77541 | 34027 ft | 385 kts | 238° |
| 2026-05-08 15:10 | 39.81879 | -75.82957 | 34025 ft | 385 kts | 238° |
| 2026-05-08 15:10 | 39.78488 | -75.88356 | 34022 ft | 385 kts | 238° |
| 2026-05-08 15:11 | 39.75668 | -75.92846 | 34026 ft | 385 kts | 238° |
| 2026-05-08 15:11 | 39.71721 | -75.99120 | 34033 ft | 385 kts | 239° |
| 2026-05-08 15:12 | 39.68905 | -76.03593 | 34048 ft | 384 kts | 239° |
| 2026-05-08 15:12 | 39.64957 | -76.09842 | 34051 ft | 384 kts | 239° |
| 2026-05-08 15:13 | 39.62129 | -76.14309 | 34054 ft | 384 kts | 239° |
| 2026-05-08 15:13 | 39.58729 | -76.19652 | 34049 ft | 384 kts | 238° |
| 2026-05-08 15:14 | 39.55274 | -76.24949 | 34050 ft | 384 kts | 238° |
| 2026-05-08 15:14 | 39.51833 | -76.30237 | 34048 ft | 383 kts | 238° |
| 2026-05-08 15:15 | 39.48418 | -76.35481 | 34053 ft | 383 kts | 238° |
| 2026-05-08 15:15 | 39.44850 | -76.40629 | 34066 ft | 387 kts | 235° |
| 2026-05-08 15:16 | 39.41061 | -76.45580 | 34065 ft | 387 kts | 235° |
| 2026-05-08 15:16 | 39.37277 | -76.50515 | 34067 ft | 386 kts | 235° |
| 2026-05-08 15:17 | 39.33537 | -76.55399 | 34061 ft | 385 kts | 235° |
| 2026-05-08 15:17 | 39.29751 | -76.60318 | 34044 ft | 385 kts | 235° |
| 2026-05-08 15:18 | 39.25985 | -76.65221 | 34043 ft | 384 kts | 236° |
| 2026-05-08 15:18 | 39.22256 | -76.70078 | 34044 ft | 383 kts | 236° |
| 2026-05-08 15:19 | 39.18501 | -76.74956 | 34042 ft | 383 kts | 236° |
| 2026-05-08 15:19 | 39.14738 | -76.79831 | 34092 ft | 382 kts | 236° |
| 2026-05-08 15:20 | 39.10991 | -76.84682 | 34084 ft | 381 kts | 236° |
| 2026-05-08 15:20 | 39.07273 | -76.89484 | 34076 ft | 380 kts | 236° |
| 2026-05-08 15:21 | 39.03533 | -76.94300 | 34073 ft | 379 kts | 236° |
| 2026-05-08 15:21 | 38.99799 | -76.99110 | 34079 ft | 378 kts | 236° |
| 2026-05-08 15:22 | 38.96102 | -77.03866 | 34077 ft | 378 kts | 236° |
| 2026-05-08 15:22 | 38.92393 | -77.08640 | 34056 ft | 377 kts | 237° |
| 2026-05-08 15:23 | 38.88689 | -77.13392 | 34057 ft | 376 kts | 237° |
| 2026-05-08 15:23 | 38.84983 | -77.18147 | 34056 ft | 376 kts | 237° |
| 2026-05-08 15:24 | 38.81306 | -77.22853 | 34044 ft | 375 kts | 237° |
| 2026-05-08 15:24 | 38.77612 | -77.27577 | 34045 ft | 375 kts | 237° |
| 2026-05-08 15:25 | 38.73935 | -77.32265 | 34048 ft | 374 kts | 237° |
| 2026-05-08 15:25 | 38.70117 | -77.36799 | 34073 ft | 378 kts | 234° |
| 2026-05-08 15:26 | 38.66210 | -77.41313 | 34074 ft | 378 kts | 234° |
| 2026-05-08 15:26 | 38.62308 | -77.45809 | 34074 ft | 377 kts | 234° |
| 2026-05-08 15:27 | 38.58409 | -77.50305 | 34071 ft | 376 kts | 235° |
| 2026-05-08 15:27 | 38.54533 | -77.54759 | 34078 ft | 376 kts | 235° |
| 2026-05-08 15:28 | 38.50664 | -77.59224 | 34081 ft | 375 kts | 235° |
| 2026-05-08 15:28 | 38.46766 | -77.63690 | 34076 ft | 375 kts | 235° |
| 2026-05-08 15:29 | 38.42884 | -77.68146 | 34077 ft | 375 kts | 235° |
| 2026-05-08 15:29 | 38.38997 | -77.72599 | 34084 ft | 375 kts | 235° |
| 2026-05-08 15:30 | 38.35133 | -77.77014 | 34086 ft | 374 kts | 235° |
| 2026-05-08 15:30 | 38.31245 | -77.81447 | 34083 ft | 375 kts | 235° |